Hlavní strana
METAR-TAF:

METAR-TAF

Letiště :

Julian Carroll Airport

Jackson, Kentucky, Spojené státy americké

zeměpisná šířka: 37-35-29N, zeměpisná délka: 083-18-52W, výška: 421 m

Aktuální stav počasí

Zpráva byla vytvořena před 51 minutami, v 00:53 UTC
Bezvětří
Teplota 3°C
Vlhkost vzduchu 60%
Tlak 1020 hPa
Viditelnost: 16.1 km
Skoro jasno ve výšce 4500 ft

METAR: KJKL 220053Z AUTO 00000KT 10SM FEW045 03/M04 A3013 RMK AO2 SLP210 T00281039

Čas: 21:44 (01:44 UTC)

Předpověď počasí

Zpráva byla vytvořena před 2 hodinami a 11 minutami, v 23:33 UTC
Předpověď platná od 22 v 00 UTC do 22 v 24 UTC
Západní vítr 7 kt
Viditelnost: 10 km
Oblačno až skoro zataženo ve výšce 6000 ft
přeháňky v blízkosti
Od 22 v 0200 UTC
vítr z různých směrů 4 kt
Viditelnost: 10 km
Skoro jasno ve výšce 10000 ft
Od 22 v 1700 UTC
Západní vítr 10 kt s nárazy do 18 kt
Viditelnost: 10 km
Oblačno až skoro zataženo ve výšce 5000 ft

TAF: KJKL 212333Z 2200/2224 28007KT P6SM VCSH BKN060 FM220200 VRB04KT P6SM FEW100 FM221700 27010G18KT P6SM BKN050

Stav a předpovědi počasí z více než 4 000 letišť (zprávy METAR a TAF).

Červené a žluté tečky na mapě představují dostupné meteorologické stanice.

Když kurzor umístíte na tečku, zobrazí se název stanice.

Pak kliknutím zobrazíte stav a předpověď počasí.

Chcete-li změnit mapu, kliknutím na zelené tlačítko se znaménkem +mapu přiblížíte, kliknutím na zelené tlačítko se znaménkem – mapu oddálíte a kliknutím na zelené šipky přejdete na sousední mapy.


METAR-TAF: